SKW3350 KSFO-KPSP
Flight info
| Callsign | SKW3350 |
|---|---|
| Flight time | 1h 7m |
| Altitude | 31000 |
| Route | WESLA5 KAYEX LOSHN CLASN SIZLR3 |
| Aircraft | E75L/M-SDE3GILORVW/S |
Departure
| Time | 2026-05-04 22:54 |
|---|---|
| Airport | San Francisco International Airport (KSFO) |
Arrival
| Time | 2026-05-05 00:02 |
|---|---|
| Airport | Palm Springs International Airport (KPSP) |
| Time | Latitude | Longitude | Altitude | Speed | Heading |
|---|---|---|---|---|---|
| 2026-05-04 22:26 | 37.61448 | -122.38196 | 29 ft | 0 kts | 320° |
| 2026-05-04 22:42 | 37.61448 | -122.38195 | 30 ft | 0 kts | 320° |
| 2026-05-04 22:42 | 37.61438 | -122.38182 | 29 ft | 2 kts | 300° |
| 2026-05-04 22:42 | 37.61432 | -122.38165 | 30 ft | 2 kts | 283° |
| 2026-05-04 22:42 | 37.61431 | -122.38145 | 29 ft | 2 kts | 264° |
| 2026-05-04 22:43 | 37.61435 | -122.38128 | 30 ft | 2 kts | 245° |
| 2026-05-04 22:43 | 37.61443 | -122.38112 | 30 ft | 2 kts | 227° |
| 2026-05-04 22:43 | 37.61453 | -122.38101 | 30 ft | 0 kts | 211° |
| 2026-05-04 22:43 | 37.61459 | -122.38097 | 30 ft | 1 kts | 207° |
| 2026-05-04 22:44 | 37.61460 | -122.38097 | 30 ft | 0 kts | 207° |
| 2026-05-04 22:46 | 37.61459 | -122.38097 | 29 ft | 0 kts | 207° |
| 2026-05-04 22:46 | 37.61447 | -122.38104 | 30 ft | 4 kts | 197° |
| 2026-05-04 22:46 | 37.61403 | -122.38082 | 29 ft | 10 kts | 124° |
| 2026-05-04 22:47 | 37.61366 | -122.37992 | 29 ft | 12 kts | 117° |
| 2026-05-04 22:47 | 37.61323 | -122.37888 | 27 ft | 14 kts | 118° |
| 2026-05-04 22:47 | 37.61270 | -122.37765 | 24 ft | 17 kts | 119° |
| 2026-05-04 22:47 | 37.61229 | -122.37606 | 19 ft | 20 kts | 88° |
| 2026-05-04 22:48 | 37.61312 | -122.37458 | 15 ft | 22 kts | 27° |
| 2026-05-04 22:48 | 37.61455 | -122.37366 | 14 ft | 23 kts | 26° |
| 2026-05-04 22:48 | 37.61558 | -122.37209 | 12 ft | 24 kts | 83° |
| 2026-05-04 22:48 | 37.61505 | -122.37003 | 10 ft | 25 kts | 120° |
| 2026-05-04 22:49 | 37.61396 | -122.36826 | 10 ft | 25 kts | 129° |
| 2026-05-04 22:49 | 37.61301 | -122.36627 | 9 ft | 26 kts | 118° |
| 2026-05-04 22:49 | 37.61211 | -122.36419 | 7 ft | 27 kts | 118° |
| 2026-05-04 22:49 | 37.61123 | -122.36202 | 7 ft | 28 kts | 118° |
| 2026-05-04 22:50 | 37.61058 | -122.36048 | 7 ft | 12 kts | 115° |
| 2026-05-04 22:50 | 37.61060 | -122.35945 | 7 ft | 12 kts | 61° |
| 2026-05-04 22:50 | 37.61083 | -122.35914 | 7 ft | 0 kts | 30° |
| 2026-05-04 22:50 | 37.61084 | -122.35913 | 7 ft | 0 kts | 30° |
| 2026-05-04 22:51 | 37.61085 | -122.35913 | 7 ft | 0 kts | 29° |
| 2026-05-04 22:53 | 37.61093 | -122.35907 | 7 ft | 3 kts | 29° |
| 2026-05-04 22:53 | 37.61137 | -122.35886 | 7 ft | 10 kts | 7° |
| 2026-05-04 22:53 | 37.61217 | -122.35946 | 7 ft | 17 kts | 299° |
| 2026-05-04 22:53 | 37.61306 | -122.36165 | 7 ft | 52 kts | 297° |
| 2026-05-04 22:54 | 37.61565 | -122.36773 | 10 ft | 105 kts | 297° |
| 2026-05-04 22:54 | 37.61982 | -122.37762 | 26 ft | 147 kts | 298° |
| 2026-05-04 22:54 | 37.62493 | -122.38957 | 311 ft | 156 kts | 297° |
| 2026-05-04 22:54 | 37.63025 | -122.40202 | 742 ft | 165 kts | 297° |
| 2026-05-04 22:55 | 37.63553 | -122.41438 | 1323 ft | 164 kts | 298° |
| 2026-05-04 22:55 | 37.64120 | -122.42758 | 1854 ft | 175 kts | 298° |
| 2026-05-04 22:55 | 37.64725 | -122.44109 | 2434 ft | 181 kts | 299° |
| 2026-05-04 22:55 | 37.65258 | -122.45568 | 2979 ft | 189 kts | 279° |
| 2026-05-04 22:56 | 37.65027 | -122.47266 | 3233 ft | 215 kts | 237° |
| 2026-05-04 22:56 | 37.63784 | -122.48455 | 3503 ft | 242 kts | 196° |
| 2026-05-04 22:56 | 37.62038 | -122.48457 | 3861 ft | 264 kts | 171° |
| 2026-05-04 22:56 | 37.60208 | -122.48138 | 4465 ft | 273 kts | 174° |
| 2026-05-04 22:57 | 37.58294 | -122.47938 | 5267 ft | 275 kts | 176° |
| 2026-05-04 22:57 | 37.56453 | -122.47808 | 6074 ft | 274 kts | 176° |
| 2026-05-04 22:57 | 37.54517 | -122.47703 | 6862 ft | 275 kts | 176° |
| 2026-05-04 22:57 | 37.52584 | -122.47612 | 7564 ft | 278 kts | 177° |
| 2026-05-04 22:58 | 37.50615 | -122.47524 | 8238 ft | 282 kts | 174° |
| 2026-05-04 22:58 | 37.48776 | -122.46760 | 8825 ft | 282 kts | 142° |
| 2026-05-04 22:58 | 37.47427 | -122.45004 | 9450 ft | 283 kts | 129° |
| 2026-05-04 22:58 | 37.46184 | -122.43096 | 10091 ft | 286 kts | 128° |
| 2026-05-04 22:59 | 37.44931 | -122.41158 | 10680 ft | 290 kts | 128° |
| 2026-05-04 22:59 | 37.43649 | -122.39170 | 11155 ft | 298 kts | 128° |
| 2026-05-04 22:59 | 37.42321 | -122.37107 | 11600 ft | 307 kts | 127° |
| 2026-05-04 22:59 | 37.40962 | -122.34998 | 12038 ft | 316 kts | 127° |
| 2026-05-04 23:00 | 37.39577 | -122.32848 | 12513 ft | 322 kts | 127° |
| 2026-05-04 23:00 | 37.38155 | -122.30641 | 13090 ft | 325 kts | 127° |
| 2026-05-04 23:00 | 37.36727 | -122.28429 | 13676 ft | 327 kts | 127° |
| 2026-05-04 23:00 | 37.35291 | -122.26204 | 14246 ft | 330 kts | 127° |
| 2026-05-04 23:01 | 37.33852 | -122.23976 | 14831 ft | 331 kts | 127° |
| 2026-05-04 23:01 | 37.32397 | -122.21725 | 15394 ft | 333 kts | 127° |
| 2026-05-04 23:01 | 37.30946 | -122.19481 | 15935 ft | 336 kts | 126° |
| 2026-05-04 23:01 | 37.29446 | -122.17164 | 16483 ft | 338 kts | 126° |
| 2026-05-04 23:02 | 37.27965 | -122.14877 | 17019 ft | 341 kts | 126° |
| 2026-05-04 23:02 | 37.26471 | -122.12571 | 17543 ft | 343 kts | 126° |
| 2026-05-04 23:02 | 37.24963 | -122.10246 | 18073 ft | 345 kts | 126° |
| 2026-05-04 23:02 | 37.23432 | -122.07888 | 18593 ft | 347 kts | 126° |
| 2026-05-04 23:03 | 37.21911 | -122.05546 | 19092 ft | 350 kts | 126° |
| 2026-05-04 23:03 | 37.20373 | -122.03179 | 19618 ft | 351 kts | 125° |
| 2026-05-04 23:03 | 37.18837 | -122.00818 | 20141 ft | 352 kts | 124° |
| 2026-05-04 23:03 | 37.17270 | -121.98411 | 20668 ft | 354 kts | 124° |
| 2026-05-04 23:04 | 37.15729 | -121.96044 | 21145 ft | 356 kts | 124° |
| 2026-05-04 23:04 | 37.14164 | -121.93642 | 21584 ft | 358 kts | 124° |
| 2026-05-04 23:04 | 37.12570 | -121.91199 | 22065 ft | 360 kts | 124° |
| 2026-05-04 23:04 | 37.10990 | -121.88778 | 22519 ft | 362 kts | 123° |
| 2026-05-04 23:05 | 37.09403 | -121.86350 | 22978 ft | 364 kts | 123° |
| 2026-05-04 23:05 | 37.07811 | -121.83913 | 23443 ft | 365 kts | 123° |
| 2026-05-04 23:05 | 37.06195 | -121.81444 | 23868 ft | 367 kts | 123° |
| 2026-05-04 23:05 | 37.04565 | -121.78953 | 24245 ft | 370 kts | 123° |
| 2026-05-04 23:06 | 37.02946 | -121.76481 | 24616 ft | 373 kts | 123° |
| 2026-05-04 23:06 | 37.01288 | -121.73953 | 24996 ft | 375 kts | 123° |
| 2026-05-04 23:06 | 36.99626 | -121.71419 | 25359 ft | 378 kts | 124° |
| 2026-05-04 23:06 | 36.97963 | -121.68887 | 25717 ft | 380 kts | 124° |
| 2026-05-04 23:07 | 36.96293 | -121.66345 | 26054 ft | 383 kts | 124° |
| 2026-05-04 23:07 | 36.94595 | -121.63763 | 26366 ft | 386 kts | 124° |
| 2026-05-04 23:07 | 36.92883 | -121.61163 | 26665 ft | 389 kts | 125° |
| 2026-05-04 23:07 | 36.91153 | -121.58536 | 26964 ft | 392 kts | 125° |
| 2026-05-04 23:08 | 36.89423 | -121.55912 | 27280 ft | 394 kts | 125° |
| 2026-05-04 23:08 | 36.87660 | -121.53241 | 27611 ft | 396 kts | 125° |
| 2026-05-04 23:08 | 36.85909 | -121.50589 | 27911 ft | 398 kts | 125° |
| 2026-05-04 23:08 | 36.84152 | -121.47929 | 28199 ft | 400 kts | 125° |
| 2026-05-04 23:09 | 36.82359 | -121.45216 | 28432 ft | 403 kts | 126° |
| 2026-05-04 23:09 | 36.80563 | -121.42505 | 28681 ft | 406 kts | 126° |
| 2026-05-04 23:09 | 36.78760 | -121.39783 | 28924 ft | 409 kts | 126° |
| 2026-05-04 23:09 | 36.76965 | -121.37074 | 29194 ft | 410 kts | 126° |
| 2026-05-04 23:10 | 36.75140 | -121.34324 | 29431 ft | 412 kts | 127° |
| 2026-05-04 23:10 | 36.73306 | -121.31563 | 29703 ft | 414 kts | 127° |
| 2026-05-04 23:10 | 36.71460 | -121.28784 | 29998 ft | 415 kts | 127° |
| 2026-05-04 23:10 | 36.69630 | -121.26033 | 30254 ft | 416 kts | 128° |
| 2026-05-04 23:11 | 36.67789 | -121.23267 | 30410 ft | 410 kts | 128° |
| 2026-05-04 23:11 | 36.65947 | -121.20509 | 30504 ft | 414 kts | 128° |
| 2026-05-04 23:11 | 36.64094 | -121.17727 | 30634 ft | 419 kts | 128° |
| 2026-05-04 23:11 | 36.62225 | -121.14924 | 30743 ft | 423 kts | 128° |
| 2026-05-04 23:12 | 36.60347 | -121.12112 | 30874 ft | 426 kts | 129° |
| 2026-05-04 23:12 | 36.58428 | -121.09241 | 30960 ft | 431 kts | 129° |
| 2026-05-04 23:12 | 36.54537 | -121.03423 | 30972 ft | 437 kts | 132° |
| 2026-05-04 23:13 | 36.50567 | -120.97503 | 30973 ft | 437 kts | 132° |
| 2026-05-04 23:13 | 36.46628 | -120.91618 | 30987 ft | 442 kts | 133° |
| 2026-05-04 23:14 | 36.42652 | -120.85655 | 30972 ft | 449 kts | 133° |
| 2026-05-04 23:14 | 36.38664 | -120.79689 | 30965 ft | 447 kts | 133° |
| 2026-05-04 23:15 | 36.34655 | -120.73701 | 30970 ft | 449 kts | 134° |
| 2026-05-04 23:15 | 36.30658 | -120.67744 | 30966 ft | 451 kts | 134° |
| 2026-05-04 23:16 | 36.26600 | -120.61704 | 30967 ft | 453 kts | 134° |
| 2026-05-04 23:16 | 36.22574 | -120.55723 | 30961 ft | 453 kts | 135° |
| 2026-05-04 23:17 | 36.18523 | -120.49716 | 30971 ft | 453 kts | 135° |
| 2026-05-04 23:17 | 36.14455 | -120.43695 | 30982 ft | 456 kts | 135° |
| 2026-05-04 23:18 | 36.10382 | -120.37676 | 30965 ft | 457 kts | 136° |
| 2026-05-04 23:18 | 36.06281 | -120.31627 | 30977 ft | 455 kts | 137° |
| 2026-05-04 23:19 | 36.02214 | -120.25639 | 30972 ft | 455 kts | 137° |
| 2026-05-04 23:19 | 35.98115 | -120.19613 | 30970 ft | 457 kts | 138° |
| 2026-05-04 23:20 | 35.94030 | -120.13619 | 30964 ft | 457 kts | 138° |
| 2026-05-04 23:20 | 35.89943 | -120.07633 | 30984 ft | 453 kts | 139° |
| 2026-05-04 23:21 | 35.85889 | -120.01682 | 30992 ft | 457 kts | 136° |
| 2026-05-04 23:21 | 35.84111 | -119.98364 | 30999 ft | 469 kts | 127° |
| 2026-05-04 23:21 | 35.82699 | -119.94672 | 30993 ft | 475 kts | 122° |
| 2026-05-04 23:22 | 35.79959 | -119.87258 | 30986 ft | 475 kts | 123° |
| 2026-05-04 23:22 | 35.77182 | -119.79865 | 30989 ft | 476 kts | 123° |
| 2026-05-04 23:23 | 35.74410 | -119.72509 | 30982 ft | 475 kts | 123° |
| 2026-05-04 23:23 | 35.71632 | -119.65157 | 30988 ft | 473 kts | 123° |
| 2026-05-04 23:24 | 35.68854 | -119.57822 | 30987 ft | 475 kts | 124° |
| 2026-05-04 23:24 | 35.65857 | -119.50562 | 30988 ft | 463 kts | 134° |
| 2026-05-04 23:25 | 35.63932 | -119.47494 | 30990 ft | 452 kts | 141° |
| 2026-05-04 23:25 | 35.61814 | -119.44615 | 30989 ft | 450 kts | 142° |
| 2026-05-04 23:25 | 35.57598 | -119.38914 | 30983 ft | 453 kts | 142° |
| 2026-05-04 23:26 | 35.53357 | -119.33190 | 30979 ft | 449 kts | 143° |
| 2026-05-04 23:26 | 35.49143 | -119.27517 | 30970 ft | 450 kts | 143° |
| 2026-05-04 23:27 | 35.44954 | -119.21883 | 30973 ft | 449 kts | 143° |
| 2026-05-04 23:27 | 35.40723 | -119.16206 | 30969 ft | 453 kts | 143° |
| 2026-05-04 23:28 | 35.36412 | -119.10431 | 30975 ft | 459 kts | 143° |
| 2026-05-04 23:28 | 35.32091 | -119.04647 | 30450 ft | 459 kts | 144° |
| 2026-05-04 23:29 | 35.29963 | -119.01814 | 29966 ft | 449 kts | 144° |
| 2026-05-04 23:29 | 35.27862 | -118.99025 | 29598 ft | 438 kts | 144° |
| 2026-05-04 23:29 | 35.25808 | -118.96307 | 29241 ft | 437 kts | 144° |
| 2026-05-04 23:29 | 35.23769 | -118.93607 | 28894 ft | 433 kts | 144° |
| 2026-05-04 23:30 | 35.21719 | -118.90897 | 28545 ft | 435 kts | 143° |
| 2026-05-04 23:30 | 35.19647 | -118.88158 | 28188 ft | 437 kts | 143° |
| 2026-05-04 23:30 | 35.17604 | -118.85456 | 27827 ft | 434 kts | 143° |
| 2026-05-04 23:30 | 35.15588 | -118.82794 | 27467 ft | 433 kts | 143° |
| 2026-05-04 23:31 | 35.13538 | -118.80087 | 27105 ft | 428 kts | 143° |
| 2026-05-04 23:31 | 35.11520 | -118.77429 | 26747 ft | 428 kts | 142° |
| 2026-05-04 23:31 | 35.09482 | -118.74744 | 26384 ft | 424 kts | 142° |
| 2026-05-04 23:31 | 35.07453 | -118.72075 | 26013 ft | 423 kts | 142° |
| 2026-05-04 23:32 | 35.05451 | -118.69443 | 25649 ft | 423 kts | 141° |
| 2026-05-04 23:32 | 35.03483 | -118.66857 | 25280 ft | 421 kts | 142° |
| 2026-05-04 23:32 | 35.01470 | -118.64213 | 24909 ft | 419 kts | 141° |
| 2026-05-04 23:32 | 34.99484 | -118.61607 | 24539 ft | 418 kts | 141° |
| 2026-05-04 23:33 | 34.97532 | -118.59048 | 24180 ft | 415 kts | 141° |
| 2026-05-04 23:33 | 34.95543 | -118.56441 | 23964 ft | 410 kts | 141° |
| 2026-05-04 23:33 | 34.93588 | -118.53885 | 23948 ft | 413 kts | 141° |
| 2026-05-04 23:33 | 34.91615 | -118.51302 | 23945 ft | 415 kts | 141° |
| 2026-05-04 23:34 | 34.89654 | -118.48737 | 23943 ft | 413 kts | 141° |
| 2026-05-04 23:34 | 34.87668 | -118.46143 | 23965 ft | 413 kts | 141° |
| 2026-05-04 23:34 | 34.85717 | -118.43597 | 23959 ft | 411 kts | 141° |
| 2026-05-04 23:34 | 34.83758 | -118.41044 | 23965 ft | 411 kts | 141° |
| 2026-05-04 23:35 | 34.81799 | -118.38492 | 23957 ft | 413 kts | 141° |
| 2026-05-04 23:35 | 34.79837 | -118.35936 | 23993 ft | 415 kts | 141° |
| 2026-05-04 23:35 | 34.77886 | -118.33374 | 23985 ft | 412 kts | 139° |
| 2026-05-04 23:35 | 34.76113 | -118.30622 | 23985 ft | 415 kts | 136° |
| 2026-05-04 23:36 | 34.74317 | -118.27822 | 23989 ft | 423 kts | 136° |
| 2026-05-04 23:36 | 34.72509 | -118.25011 | 23983 ft | 419 kts | 136° |
| 2026-05-04 23:36 | 34.70709 | -118.22221 | 23993 ft | 416 kts | 137° |
| 2026-05-04 23:36 | 34.68927 | -118.19464 | 23968 ft | 417 kts | 137° |
| 2026-05-04 23:37 | 34.67162 | -118.16736 | 23981 ft | 414 kts | 137° |
| 2026-05-04 23:37 | 34.65381 | -118.13987 | 23961 ft | 419 kts | 137° |
| 2026-05-04 23:37 | 34.63576 | -118.11198 | 23971 ft | 417 kts | 137° |
| 2026-05-04 23:37 | 34.61780 | -118.08431 | 23973 ft | 419 kts | 137° |
| 2026-05-04 23:38 | 34.59978 | -118.05653 | 23964 ft | 420 kts | 137° |
| 2026-05-04 23:38 | 34.58206 | -118.02882 | 23974 ft | 423 kts | 132° |
| 2026-05-04 23:38 | 34.56779 | -117.99693 | 24013 ft | 431 kts | 125° |
| 2026-05-04 23:38 | 34.55463 | -117.96460 | 23899 ft | 430 kts | 125° |
| 2026-05-04 23:39 | 34.54131 | -117.93204 | 23387 ft | 431 kts | 124° |
| 2026-05-04 23:39 | 34.52811 | -117.89979 | 22897 ft | 428 kts | 124° |
| 2026-05-04 23:39 | 34.51487 | -117.86742 | 22404 ft | 421 kts | 124° |
| 2026-05-04 23:39 | 34.50198 | -117.83602 | 21887 ft | 418 kts | 123° |
| 2026-05-04 23:40 | 34.48910 | -117.80460 | 21396 ft | 415 kts | 124° |
| 2026-05-04 23:40 | 34.47644 | -117.77379 | 20924 ft | 409 kts | 123° |
| 2026-05-04 23:40 | 34.46368 | -117.74279 | 20412 ft | 405 kts | 122° |
| 2026-05-04 23:40 | 34.45125 | -117.71256 | 19953 ft | 402 kts | 123° |
| 2026-05-04 23:41 | 34.43912 | -117.68293 | 19836 ft | 396 kts | 123° |
| 2026-05-04 23:41 | 34.42670 | -117.65253 | 19576 ft | 399 kts | 122° |
| 2026-05-04 23:41 | 34.41431 | -117.62220 | 19261 ft | 400 kts | 122° |
| 2026-05-04 23:41 | 34.40216 | -117.59246 | 18952 ft | 398 kts | 122° |
| 2026-05-04 23:42 | 34.38979 | -117.56224 | 18654 ft | 396 kts | 122° |
| 2026-05-04 23:42 | 34.37784 | -117.53304 | 18361 ft | 391 kts | 121° |
| 2026-05-04 23:42 | 34.36564 | -117.50327 | 18055 ft | 388 kts | 121° |
| 2026-05-04 23:42 | 34.35376 | -117.47435 | 17760 ft | 383 kts | 121° |
| 2026-05-04 23:43 | 34.34193 | -117.44566 | 17450 ft | 382 kts | 121° |
| 2026-05-04 23:43 | 34.33003 | -117.41690 | 17123 ft | 382 kts | 121° |
| 2026-05-04 23:43 | 34.31812 | -117.38820 | 16826 ft | 379 kts | 121° |
| 2026-05-04 23:43 | 34.30632 | -117.35986 | 16524 ft | 375 kts | 121° |
| 2026-05-04 23:44 | 34.29453 | -117.33164 | 16233 ft | 375 kts | 121° |
| 2026-05-04 23:44 | 34.28258 | -117.30372 | 16028 ft | 370 kts | 125° |
| 2026-05-04 23:44 | 34.26957 | -117.27687 | 16055 ft | 373 kts | 124° |
| 2026-05-04 23:44 | 34.25676 | -117.24965 | 16038 ft | 369 kts | 124° |
| 2026-05-04 23:45 | 34.24415 | -117.22262 | 16037 ft | 373 kts | 123° |
| 2026-05-04 23:45 | 34.23121 | -117.19470 | 16050 ft | 371 kts | 123° |
| 2026-05-04 23:45 | 34.21869 | -117.16773 | 16063 ft | 375 kts | 124° |
| 2026-05-04 23:45 | 34.20601 | -117.14040 | 16065 ft | 371 kts | 124° |
| 2026-05-04 23:46 | 34.19325 | -117.11295 | 16080 ft | 374 kts | 123° |
| 2026-05-04 23:46 | 34.18035 | -117.08522 | 16087 ft | 376 kts | 123° |
| 2026-05-04 23:46 | 34.16757 | -117.05792 | 16080 ft | 373 kts | 124° |
| 2026-05-04 23:46 | 34.15463 | -117.03079 | 16082 ft | 379 kts | 124° |
| 2026-05-04 23:47 | 34.14163 | -117.00354 | 16046 ft | 375 kts | 124° |
| 2026-05-04 23:47 | 34.12874 | -116.97649 | 16036 ft | 364 kts | 125° |
| 2026-05-04 23:47 | 34.11586 | -116.94957 | 16057 ft | 376 kts | 124° |
| 2026-05-04 23:47 | 34.10291 | -116.92245 | 16048 ft | 375 kts | 124° |
| 2026-05-04 23:48 | 34.08996 | -116.89519 | 15842 ft | 380 kts | 123° |
| 2026-05-04 23:48 | 34.07708 | -116.86758 | 15386 ft | 373 kts | 123° |
| 2026-05-04 23:48 | 34.06448 | -116.84061 | 14936 ft | 370 kts | 123° |
| 2026-05-04 23:48 | 34.05188 | -116.81368 | 14543 ft | 367 kts | 123° |
| 2026-05-04 23:49 | 34.03946 | -116.78714 | 14148 ft | 364 kts | 123° |
| 2026-05-04 23:49 | 34.02948 | -116.75922 | 13748 ft | 364 kts | 111° |
| 2026-05-04 23:49 | 34.02176 | -116.73030 | 13334 ft | 359 kts | 110° |
| 2026-05-04 23:49 | 34.01425 | -116.70209 | 12917 ft | 359 kts | 110° |
| 2026-05-04 23:50 | 34.00671 | -116.67383 | 12460 ft | 357 kts | 111° |
| 2026-05-04 23:50 | 33.99918 | -116.64565 | 12011 ft | 352 kts | 110° |
| 2026-05-04 23:50 | 33.99168 | -116.61763 | 11622 ft | 346 kts | 109° |
| 2026-05-04 23:50 | 33.98443 | -116.59056 | 11226 ft | 338 kts | 109° |
| 2026-05-04 23:51 | 33.97729 | -116.56393 | 10820 ft | 330 kts | 109° |
| 2026-05-04 23:51 | 33.97046 | -116.53841 | 10795 ft | 311 kts | 109° |
| 2026-05-04 23:51 | 33.96371 | -116.51324 | 10920 ft | 318 kts | 110° |
| 2026-05-04 23:51 | 33.95682 | -116.48779 | 11061 ft | 320 kts | 110° |
| 2026-05-04 23:52 | 33.94986 | -116.46227 | 11131 ft | 324 kts | 111° |
| 2026-05-04 23:52 | 33.93843 | -116.43928 | 11127 ft | 314 kts | 140° |
| 2026-05-04 23:52 | 33.92006 | -116.42645 | 10982 ft | 307 kts | 169° |
| 2026-05-04 23:52 | 33.89883 | -116.42272 | 10793 ft | 309 kts | 167° |
| 2026-05-04 23:53 | 33.88000 | -116.40996 | 10506 ft | 314 kts | 136° |
| 2026-05-04 23:53 | 33.86776 | -116.38828 | 10195 ft | 311 kts | 124° |
| 2026-05-04 23:53 | 33.85394 | -116.36900 | 9819 ft | 304 kts | 139° |
| 2026-05-04 23:53 | 33.83933 | -116.35132 | 9404 ft | 300 kts | 123° |
| 2026-05-04 23:54 | 33.83053 | -116.32841 | 9031 ft | 299 kts | 114° |
| 2026-05-04 23:54 | 33.82247 | -116.30572 | 8550 ft | 298 kts | 115° |
| 2026-05-04 23:54 | 33.81417 | -116.28320 | 7981 ft | 294 kts | 116° |
| 2026-05-04 23:54 | 33.80365 | -116.26253 | 7446 ft | 282 kts | 137° |
| 2026-05-04 23:55 | 33.78917 | -116.24760 | 6952 ft | 271 kts | 156° |
| 2026-05-04 23:55 | 33.77141 | -116.24319 | 6487 ft | 254 kts | 191° |
| 2026-05-04 23:55 | 33.73850 | -116.25453 | 5517 ft | 242 kts | 209° |
| 2026-05-04 23:56 | 33.72686 | -116.26800 | 5057 ft | 233 kts | 248° |
| 2026-05-04 23:56 | 33.72362 | -116.28656 | 4635 ft | 228 kts | 264° |
| 2026-05-04 23:56 | 33.72216 | -116.30523 | 4272 ft | 222 kts | 265° |
| 2026-05-04 23:56 | 33.72161 | -116.31300 | 4163 ft | 218 kts | 265° |
| 2026-05-04 23:57 | 33.72038 | -116.33149 | 3885 ft | 209 kts | 265° |
| 2026-05-04 23:58 | 33.71931 | -116.34865 | 3618 ft | 201 kts | 265° |
| 2026-05-04 23:58 | 33.72032 | -116.36480 | 3426 ft | 191 kts | 289° |
| 2026-05-04 23:58 | 33.72524 | -116.37894 | 3299 ft | 184 kts | 292° |
| 2026-05-04 23:58 | 33.73029 | -116.39299 | 3142 ft | 176 kts | 291° |
| 2026-05-04 23:59 | 33.73503 | -116.40604 | 2929 ft | 165 kts | 292° |
| 2026-05-04 23:59 | 33.73978 | -116.41791 | 2667 ft | 153 kts | 303° |
| 2026-05-04 23:59 | 33.74601 | -116.42759 | 2552 ft | 143 kts | 311° |
| 2026-05-04 23:59 | 33.75350 | -116.43523 | 2408 ft | 139 kts | 318° |
| 2026-05-05 00:00 | 33.76102 | -116.44250 | 2185 ft | 141 kts | 319° |
| 2026-05-05 00:00 | 33.76350 | -116.44488 | 2121 ft | 138 kts | 319° |
| 2026-05-05 00:00 | 33.77610 | -116.45701 | 1776 ft | 140 kts | 320° |
| 2026-05-05 00:00 | 33.78330 | -116.46411 | 1560 ft | 129 kts | 315° |
| 2026-05-05 00:01 | 33.78956 | -116.47180 | 1304 ft | 127 kts | 318° |
| 2026-05-05 00:01 | 33.79656 | -116.47845 | 1057 ft | 128 kts | 324° |
| 2026-05-05 00:01 | 33.80388 | -116.48475 | 854 ft | 132 kts | 324° |
| 2026-05-05 00:01 | 33.81124 | -116.49127 | 694 ft | 128 kts | 323° |
| 2026-05-05 00:02 | 33.81827 | -116.49754 | 562 ft | 123 kts | 324° |
| 2026-05-05 00:02 | 33.82509 | -116.50362 | 453 ft | 119 kts | 324° |
| 2026-05-05 00:02 | 33.82987 | -116.50784 | 468 ft | 48 kts | 323° |
| 2026-05-05 00:02 | 33.83096 | -116.50883 | 473 ft | 3 kts | 322° |
| 2026-05-05 00:03 | 33.83138 | -116.50921 | 474 ft | 13 kts | 323° |
| 2026-05-05 00:03 | 33.83260 | -116.51030 | 478 ft | 27 kts | 324° |
| 2026-05-05 00:03 | 33.83316 | -116.51163 | 480 ft | 16 kts | 242° |
| 2026-05-05 00:03 | 33.83283 | -116.51191 | 481 ft | 0 kts | 190° |